»·PEaware :: N172SP KBTM-KBOI

N172SP :: KBTM-KBOI

FLIGHT INFORMATION

Flight Status: Arrived
Operator: Privately registered:
United States
More flights under this callsign
Pilot: Robert B. (18423)
Aircraft: CESSNA 172 SKYHAWK
(C172)
More flights by this aircraft type
Origin: KBTM Mooney
United States
Destination: KBOI Boise Air Terminal/Gowen
United States
More flights between these airports :: More routes between these airports
Route: HIA V21 DLN V121 LKT V269 DNJ V253 SALLA NICPE
File this flight plan on PilotEdge
Remarks: SVC-IFR
Altitude:
(Current/Filed)
12,000ft
Speed:
(Current/Filed)
110kts
Departed: 05-Mar-18 11:34 AM
Arrived: 05-Mar-18 02:26 PM
Distance/Time
Traveled:
214nm/2:52
Distance/Time
To Go:
Arrived

Flight Plot

Page will automatically refresh every two minutes.

Flight plan parsing failed; only flown route is shown


Map Options




Map Legend


Flown Route
Filed Route
Departure Airport
Arrival Airport
Navaid (VOR, NDB)
Fix

Horizontal Profiles

Position Reports

Time Latitude Longitude Heading Altitude Ground
Speed
05-Mar-18 11:18 45.946494 -112.497571 124 5547ft 0kts
05-Mar-18 11:19 45.946494 -112.497571 124 5547ft 0kts
05-Mar-18 11:20 45.946494 -112.497571 124 5547ft 0kts
05-Mar-18 11:21 45.946494 -112.497571 124 5547ft 0kts
05-Mar-18 11:22 45.946494 -112.497571 124 5547ft 0kts
05-Mar-18 11:23 45.946494 -112.497571 124 5547ft 0kts
05-Mar-18 11:24 45.946494 -112.497571 124 5547ft 0kts
05-Mar-18 11:25 45.946494 -112.497571 124 5547ft 0kts
05-Mar-18 11:26 45.946494 -112.497571 124 5547ft 0kts
05-Mar-18 11:27 45.946494 -112.497571 124 5547ft 0kts
05-Mar-18 11:28 45.946494 -112.497571 124 5547ft 0kts
05-Mar-18 11:29 45.946494 -112.497571 124 5547ft 0kts
05-Mar-18 11:30 45.946494 -112.497571 124 5547ft 0kts
05-Mar-18 11:31 45.946494 -112.497571 124 5547ft 0kts
05-Mar-18 11:32 45.947355 -112.496259 41 5542ft 12kts
05-Mar-18 11:33 45.943353 -112.494965 167 5545ft 16kts
05-Mar-18 11:34 45.942981 -112.494565 100 5544ft 0kts
05-Mar-18 11:35 45.942980 -112.494558 104 5544ft 0kts
05-Mar-18 11:36 45.942980 -112.494558 104 5544ft 0kts
05-Mar-18 11:37 45.942980 -112.494558 104 5544ft 0kts
05-Mar-18 11:38 45.943538 -112.493383 340 5539ft 0kts
05-Mar-18 11:39 45.943538 -112.493383 340 5539ft 0kts
05-Mar-18 11:40 45.943538 -112.493383 341 5539ft 0kts
05-Mar-18 11:41 45.952104 -112.495932 350 5791ft 59kts
05-Mar-18 11:42 45.953197 -112.481950 135 6486ft 70kts
05-Mar-18 11:43 45.939643 -112.462208 124 7086ft 72kts
05-Mar-18 11:44 45.931558 -112.436120 106 7669ft 75kts
05-Mar-18 11:45 45.924781 -112.408106 106 8242ft 74kts
05-Mar-18 11:46 45.918208 -112.381069 100 8755ft 75kts
05-Mar-18 11:47 45.910644 -112.345544 107 9075ft 102kts
05-Mar-18 11:48 45.900214 -112.305477 110 9561ft 104kts
05-Mar-18 11:49 45.889369 -112.266310 111 10008ft 106kts
05-Mar-18 11:50 45.878188 -112.226756 112 10431ft 107kts
05-Mar-18 11:51 45.866866 -112.186928 113 10858ft 108kts
05-Mar-18 11:52 45.844321 -112.180746 212 11274ft 89kts
05-Mar-18 11:53 45.821703 -112.194513 213 11675ft 89kts
05-Mar-18 11:54 45.798904 -112.208608 213 12006ft 94kts
05-Mar-18 11:55 45.772363 -112.225218 212 12014ft 110kts
05-Mar-18 11:56 45.743578 -112.243075 212 12016ft 113kts
05-Mar-18 11:57 45.714678 -112.260983 212 12016ft 112kts
05-Mar-18 11:58 45.690774 -112.275796 212 12016ft 112kts
05-Mar-18 11:59 45.657339 -112.296481 212 12016ft 112kts
05-Mar-18 12:00 45.633609 -112.311146 212 12016ft 112kts
05-Mar-18 12:01 45.604992 -112.328810 212 12016ft 112kts
05-Mar-18 12:02 45.571658 -112.349333 212 12075ft 106kts
05-Mar-18 12:03 45.553126 -112.360458 215 12590ft 77kts
05-Mar-18 12:04 45.530435 -112.374829 212 12196ft 137kts
05-Mar-18 12:05 45.500941 -112.392929 212 11979ft 110kts
05-Mar-18 12:06 45.472151 -112.410560 212 11979ft 112kts
05-Mar-18 12:07 45.442316 -112.428835 212 11979ft 113kts
05-Mar-18 12:08 45.413601 -112.446422 212 11979ft 113kts
05-Mar-18 12:09 45.384772 -112.464059 212 11979ft 113kts
05-Mar-18 12:10 45.355819 -112.481756 212 11979ft 113kts
05-Mar-18 12:11 45.329093 -112.498077 212 11979ft 113kts
05-Mar-18 12:12 45.298177 -112.516932 212 11979ft 113kts
05-Mar-18 12:13 45.269389 -112.534472 212 11979ft 113kts
05-Mar-18 12:14 45.248214 -112.560513 259 11979ft 101kts
05-Mar-18 12:15 45.241732 -112.599316 261 11979ft 101kts
05-Mar-18 12:16 45.235894 -112.638238 262 11979ft 100kts
05-Mar-18 12:17 45.230370 -112.676435 261 11982ft 101kts
05-Mar-18 12:18 45.224782 -112.715515 262 11982ft 101kts
05-Mar-18 12:19 45.219184 -112.754754 262 11982ft 101kts
05-Mar-18 12:20 45.213580 -112.793999 262 11982ft 101kts
05-Mar-18 12:21 45.208116 -112.832201 261 11981ft 101kts
05-Mar-18 12:22 45.202539 -112.871080 261 11981ft 101kts
05-Mar-18 12:23 45.196931 -112.910083 260 11981ft 101kts
05-Mar-18 12:24 45.191249 -112.949550 260 11981ft 101kts
05-Mar-18 12:25 45.185587 -112.988767 260 11981ft 102kts
05-Mar-18 12:26 45.179893 -113.028142 259 11981ft 102kts
05-Mar-18 12:27 45.174234 -113.067192 259 11990ft 101kts
05-Mar-18 12:28 45.168524 -113.106446 259 12008ft 101kts
05-Mar-18 12:29 45.162805 -113.145631 259 12025ft 101kts
05-Mar-18 12:30 45.157159 -113.184188 259 12042ft 101kts
05-Mar-18 12:31 45.151449 -113.223071 259 12060ft 101kts
05-Mar-18 12:32 45.145741 -113.261813 259 12077ft 101kts
05-Mar-18 12:33 45.140003 -113.300715 259 12088ft 101kts
05-Mar-18 12:34 45.134288 -113.339333 259 12088ft 100kts
05-Mar-18 12:35 45.128547 -113.378037 259 12087ft 99kts
05-Mar-18 12:36 45.122895 -113.416039 259 12087ft 99kts
05-Mar-18 12:37 45.117232 -113.453999 259 12087ft 98kts
05-Mar-18 12:38 45.111616 -113.491564 259 12087ft 97kts
05-Mar-18 12:39 45.106009 -113.528973 259 12087ft 96kts
05-Mar-18 12:40 45.100448 -113.565976 259 12087ft 96kts
05-Mar-18 12:41 45.094909 -113.602753 259 12087ft 95kts
05-Mar-18 12:42 45.089387 -113.639313 259 12054ft 98kts
05-Mar-18 12:43 45.083940 -113.675332 259 11998ft 98kts
05-Mar-18 12:44 45.078692 -113.709979 259 11998ft 96kts
05-Mar-18 12:45 45.072784 -113.748886 259 11998ft 96kts
05-Mar-18 12:46 45.067816 -113.781493 259 11998ft 95kts
05-Mar-18 12:47 45.061787 -113.821090 259 11998ft 95kts
05-Mar-18 12:48 45.056115 -113.858118 259 11998ft 96kts
05-Mar-18 12:49 45.050302 -113.895978 259 11997ft 96kts
05-Mar-18 12:50 45.044639 -113.932829 259 11997ft 96kts
05-Mar-18 12:51 45.038981 -113.969563 259 11997ft 96kts
05-Mar-18 12:52 45.033269 -114.006568 259 11997ft 96kts
05-Mar-18 12:53 45.027559 -114.043473 259 11997ft 96kts
05-Mar-18 12:54 45.021844 -114.080317 259 11997ft 96kts
05-Mar-18 12:55 45.017679 -114.116521 262 11997ft 96kts
05-Mar-18 12:56 45.014657 -114.143846 262 11997ft 96kts
05-Mar-18 12:57 45.010528 -114.181069 262 11997ft 96kts
05-Mar-18 12:58 45.006378 -114.218427 262 11997ft 96kts
05-Mar-18 12:59 45.002171 -114.256098 262 11995ft 97kts
05-Mar-18 13:00 44.997999 -114.293473 262 11989ft 97kts
05-Mar-18 13:01 44.993747 -114.331514 262 11982ft 99kts
05-Mar-18 13:02 44.989388 -114.370501 262 11974ft 102kts
05-Mar-18 13:03 44.984914 -114.410372 262 11966ft 104kts
05-Mar-18 13:04 44.980258 -114.451664 262 11957ft 107kts
05-Mar-18 13:05 44.975490 -114.493777 262 11948ft 110kts
05-Mar-18 13:06 44.970621 -114.536602 262 11946ft 112kts
05-Mar-18 13:07 44.965655 -114.580063 262 11944ft 113kts
05-Mar-18 13:08 44.960624 -114.623914 262 11943ft 113kts
05-Mar-18 13:09 44.955769 -114.666060 261 11944ft 113kts
05-Mar-18 13:10 44.950679 -114.710064 261 11944ft 113kts
05-Mar-18 13:11 44.945624 -114.753667 261 11943ft 113kts
05-Mar-18 13:12 44.940568 -114.797126 261 11943ft 113kts
05-Mar-18 13:13 44.935473 -114.840754 261 11943ft 113kts
05-Mar-18 13:14 44.930319 -114.884758 261 11943ft 113kts
05-Mar-18 13:15 44.925187 -114.928424 261 11943ft 113kts
05-Mar-18 13:16 44.920011 -114.972267 261 11943ft 113kts
05-Mar-18 13:17 44.914859 -115.015799 261 11943ft 111kts
05-Mar-18 13:18 44.909773 -115.058611 262 11943ft 109kts
05-Mar-18 13:19 44.904796 -115.100399 262 11943ft 107kts
05-Mar-18 13:20 44.899959 -115.140817 263 11943ft 105kts
05-Mar-18 13:21 44.895253 -115.180077 263 11942ft 103kts
05-Mar-18 13:22 44.890516 -115.219473 263 11943ft 101kts
05-Mar-18 13:23 44.885818 -115.258444 263 11948ft 101kts
05-Mar-18 13:24 44.881102 -115.297408 263 11952ft 101kts
05-Mar-18 13:25 44.876375 -115.336359 263 11956ft 101kts
05-Mar-18 13:26 44.871639 -115.375229 263 11961ft 101kts
05-Mar-18 13:27 44.866894 -115.414008 263 11965ft 101kts
05-Mar-18 13:28 44.862150 -115.452769 263 11968ft 100kts
05-Mar-18 13:29 44.857401 -115.491511 263 11968ft 100kts
05-Mar-18 13:30 44.852689 -115.529719 263 11968ft 99kts
05-Mar-18 13:31 44.847967 -115.567894 263 11968ft 99kts
05-Mar-18 13:32 44.843226 -115.606158 263 11968ft 98kts
05-Mar-18 13:33 44.838737 -115.642220 263 11968ft 97kts
05-Mar-18 13:34 44.834326 -115.677382 263 11971ft 99kts
05-Mar-18 13:35 44.829768 -115.713825 263 11971ft 98kts
05-Mar-18 13:36 44.825021 -115.751586 263 11971ft 98kts
05-Mar-18 13:37 44.820297 -115.789164 263 11970ft 97kts
05-Mar-18 13:38 44.815650 -115.826000 263 11970ft 95kts
05-Mar-18 13:39 44.811043 -115.862408 263 11970ft 93kts
05-Mar-18 13:40 44.806531 -115.897976 263 11970ft 91kts
05-Mar-18 13:41 44.802054 -115.933192 263 11970ft 91kts
05-Mar-18 13:42 44.797647 -115.967904 263 11970ft 93kts
05-Mar-18 13:43 44.793095 -116.003694 263 11970ft 96kts
05-Mar-18 13:44 44.788384 -116.040631 263 11970ft 98kts
05-Mar-18 13:45 44.783493 -116.078761 263 11970ft 99kts
05-Mar-18 13:46 44.778655 -116.116407 263 11969ft 98kts
05-Mar-18 13:47 44.773797 -116.154002 263 11969ft 96kts
05-Mar-18 13:48 44.769044 -116.190768 263 11969ft 95kts
05-Mar-18 13:49 44.744356 -116.204529 190 11969ft 112kts
05-Mar-18 13:50 44.713475 -116.205124 189 11969ft 113kts
05-Mar-18 13:51 44.682282 -116.205056 188 11969ft 112kts
05-Mar-18 13:52 44.651428 -116.204763 188 11969ft 113kts
05-Mar-18 13:53 44.619975 -116.204435 188 11969ft 114kts
05-Mar-18 13:54 44.588911 -116.204055 188 11969ft 112kts
05-Mar-18 13:55 44.558005 -116.203682 188 11969ft 111kts
05-Mar-18 13:56 44.527774 -116.203303 188 11969ft 109kts
05-Mar-18 13:57 44.497541 -116.202922 188 11969ft 108kts
05-Mar-18 13:58 44.467700 -116.202548 189 11969ft 107kts
05-Mar-18 13:59 44.438206 -116.202185 189 11969ft 105kts
05-Mar-18 14:00 44.409678 -116.202070 189 11318ft 101kts
05-Mar-18 14:01 44.380087 -116.201843 188 10767ft 108kts
05-Mar-18 14:02 44.350374 -116.201506 187 10303ft 106kts
05-Mar-18 14:03 44.326120 -116.201216 186 9982ft 105kts
05-Mar-18 14:04 44.291955 -116.200615 186 9986ft 105kts
05-Mar-18 14:05 44.262606 -116.200230 186 10005ft 106kts
05-Mar-18 14:06 44.237760 -116.199942 186 10022ft 107kts
05-Mar-18 14:07 44.207682 -116.199606 186 10042ft 110kts
05-Mar-18 14:08 44.176933 -116.199263 186 10063ft 111kts
05-Mar-18 14:09 44.141016 -116.198871 187 10077ft 112kts
05-Mar-18 14:10 44.115259 -116.198617 187 10077ft 111kts
05-Mar-18 14:11 44.084098 -116.198292 186 10077ft 112kts
05-Mar-18 14:12 44.052873 -116.197947 186 10077ft 113kts
05-Mar-18 14:13 44.021428 -116.197583 186 10076ft 110kts
05-Mar-18 14:14 43.990802 -116.197328 186 8985ft 109kts
05-Mar-18 14:15 43.960360 -116.197433 186 8064ft 115kts
05-Mar-18 14:16 43.927165 -116.197369 186 8055ft 124kts
05-Mar-18 14:17 43.893122 -116.197555 186 8052ft 125kts
05-Mar-18 14:18 43.858282 -116.197791 186 8051ft 125kts
05-Mar-18 14:19 43.823390 -116.198079 186 8050ft 125kts
05-Mar-18 14:20 43.788707 -116.198359 186 8050ft 125kts
05-Mar-18 14:21 43.753920 -116.198612 186 8050ft 125kts
05-Mar-18 14:22 43.719086 -116.198919 186 8050ft 125kts
05-Mar-18 14:23 43.684426 -116.199200 185 8050ft 125kts
05-Mar-18 14:24 43.650602 -116.199429 185 7509ft 125kts
05-Mar-18 14:25 43.617056 -116.201441 189 6333ft 131kts
05-Mar-18 14:26 43.586903 -116.189936 116 4935ft 114kts
05-Mar-18 14:27 43.573439 -116.155558 110 4656ft 90kts
05-Mar-18 14:28 43.560302 -116.122642 138 4735ft 96kts
05-Mar-18 14:29 43.543162 -116.131511 256 4472ft 68kts
05-Mar-18 14:30 43.541772 -116.155047 295 3872ft 57kts
05-Mar-18 14:31 43.550257 -116.178993 301 3295ft 73kts
05-Mar-18 14:32 43.558670 -116.203039 301 2912ft 65kts
05-Mar-18 14:33 43.563591 -116.216730 352 2852ft 6kts
05-Mar-18 14:34 43.564871 -116.217638 295 2852ft 8kts
05-Mar-18 14:35 43.566669 -116.222879 297 2846ft 17kts
05-Mar-18 14:36 43.568239 -116.225830 21 2842ft 8kts
05-Mar-18 14:37 43.570208 -116.226456 275 2838ft 2kts
05-Mar-18 14:38 43.570209 -116.226462 275 2838ft 0kts
05-Mar-18 14:39 43.570472 -116.226387 168 2838ft 0kts
05-Mar-18 14:40 43.570472 -116.226387 168 2838ft 0kts

Navigation Log

Ident Type
Flight plan parsing failed, navigation log unavailable